Time;durP1;ratioP1;P1;durP2;ratioP2;P2;SDS_P1;SDS_P2;PMS_P1;PMS_P2;Temp;Humidity;BMP_temperature;BMP_pressure;BME280_temperature;BME280_humidity;BME280_pressure;Samples;Min_cycle;Max_cycle;Signal;HPM_P1;HPM_P2
2022/10/31 00:01:36;;;;;;;1.58;0.70;;;;;;;17.56;42.68;100498.31;4989830;28;20029;-94
2022/10/31 00:04:02;;;;;;;2.10;0.60;;;;;;;17.57;42.85;100487.25;4956913;28;20028;-94
2022/10/31 00:06:28;;;;;;;1.27;0.55;;;;;;;17.59;43.01;100490.56;4996285;28;20034;-94
2022/10/31 00:08:55;;;;;;;3.92;1.13;;;;;;;17.57;42.81;100497.25;4988208;28;20409;-93
2022/10/31 00:11:21;;;;;;;2.30;0.85;;;;;;;17.57;42.81;100497.25;4999318;28;20585;-94
2022/10/31 00:13:46;;;;;;;2.45;0.77;;;;;;;17.57;42.79;100513.44;4998161;28;20409;-94
2022/10/31 00:16:19;;;;;;;2.22;0.68;;;;;;;17.57;42.85;100516.16;4990237;28;20412;-94
2022/10/31 00:18:51;;;;;;;1.90;0.50;;;;;;;17.54;43.04;100508.50;4997554;28;20034;-94
2022/10/31 00:21:16;;;;;;;1.55;0.60;;;;;;;17.55;43.13;100510.97;4991065;28;20560;-94
2022/10/31 00:23:42;;;;;;;1.58;0.73;;;;;;;17.59;42.71;100517.59;4994676;28;20030;-93
2022/10/31 00:26:07;;;;;;;1.30;0.63;;;;;;;17.57;42.93;100524.25;4997962;28;20562;-94
2022/10/31 00:28:33;;;;;;;1.90;0.65;;;;;;;17.56;42.80;100518.03;5003002;28;20065;-93
2022/10/31 00:31:03;;;;;;;1.15;0.75;;;;;;;17.60;42.79;100518.41;4994830;28;20021;-95
2022/10/31 00:33:29;;;;;;;0.93;0.63;;;;;;;17.59;42.75;100516.75;4998577;28;20047;-94
2022/10/31 00:35:54;;;;;;;0.60;0.40;;;;;;;17.54;42.87;100524.72;4990198;28;20022;-94
2022/10/31 00:38:20;;;;;;;2.13;0.80;;;;;;;17.59;42.77;100530.25;5004204;28;20495;-94
2022/10/31 00:40:45;;;;;;;1.05;0.57;;;;;;;17.56;42.86;100528.03;4986030;28;20029;-94
2022/10/31 00:43:11;;;;;;;1.60;0.50;;;;;;;17.58;43.00;100532.13;4999407;28;20065;-94
2022/10/31 00:45:37;;;;;;;1.42;0.70;;;;;;;17.58;42.81;100536.72;5001875;28;20455;-94
2022/10/31 00:48:02;;;;;;;1.75;0.63;;;;;;;17.58;42.65;100536.72;4991701;28;20029;-94
2022/10/31 00:50:28;;;;;;;1.25;0.60;;;;;;;17.56;42.83;100530.75;4998498;28;20034;-94
2022/10/31 00:52:54;;;;;;;1.00;0.60;;;;;;;17.57;42.75;100530.47;4988943;28;20026;-94
2022/10/31 00:55:19;;;;;;;2.67;0.77;;;;;;;17.61;42.52;100534.38;4994937;28;20061;-94
2022/10/31 00:57:48;;;;;;;2.17;0.63;;;;;;;17.60;42.61;100545.44;5007211;28;20395;-94
2022/10/31 01:00:14;;;;;;;2.20;0.50;;;;;;;17.59;42.78;100535.66;4993920;28;20522;-94
2022/10/31 01:02:40;;;;;;;1.30;0.50;;;;;;;17.57;42.63;100535.06;5001902;28;20044;-93
2022/10/31 01:05:05;;;;;;;2.08;0.55;;;;;;;17.59;42.72;100539.22;5007405;28;20021;-94
2022/10/31 01:07:31;;;;;;;1.08;0.60;;;;;;;17.53;42.62;100545.50;4987750;28;20084;-94
2022/10/31 01:09:56;;;;;;;1.85;0.63;;;;;;;17.58;42.72;100542.94;4959418;28;20034;-94
2022/10/31 01:12:22;;;;;;;0.82;0.50;;;;;;;17.60;42.69;100542.72;4997340;28;20530;-94
2022/10/31 01:14:48;;;;;;;0.93;0.50;;;;;;;17.58;42.71;100544.84;4995970;28;20037;-94
2022/10/31 01:17:13;;;;;;;2.17;0.65;;;;;;;17.61;42.42;100539.78;4995929;28;20113;-93
2022/10/31 01:19:39;;;;;;;1.08;0.57;;;;;;;17.55;42.56;100535.28;4981793;28;20589;-94
2022/10/31 01:22:07;;;;;;;0.52;0.40;;;;;;;17.58;42.56;100534.03;4990245;28;20029;-94
2022/10/31 01:24:33;;;;;;;1.30;0.60;;;;;;;17.57;42.64;100538.59;4991905;28;20033;-93
2022/10/31 01:26:59;;;;;;;1.38;0.65;;;;;;;17.59;42.43;100532.97;5003097;28;20105;-94
2022/10/31 01:29:24;;;;;;;1.13;0.47;;;;;;;17.59;42.61;100532.97;5002110;28;20506;-94
2022/10/31 01:31:50;;;;;;;2.33;0.65;;;;;;;17.61;42.67;100539.78;5005852;28;20030;-94
2022/10/31 01:34:16;;;;;;;0.57;0.40;;;;;;;17.58;42.66;100542.94;4998333;28;20087;-94
2022/10/31 01:36:42;;;;;;;0.88;0.60;;;;;;;17.57;42.48;100541.28;4993914;28;20033;-94
2022/10/31 01:39:14;;;;;;;1.55;0.60;;;;;;;17.56;42.52;100534.25;4986831;28;20033;-94
2022/10/31 01:41:43;;;;;;;1.20;0.63;;;;;;;17.56;42.47;100534.25;4986974;28;20050;-94
2022/10/31 01:44:14;;;;;;;0.77;0.50;;;;;;;17.63;42.51;100544.97;4987011;28;20033;-93
2022/10/31 01:46:44;;;;;;;1.20;0.60;;;;;;;17.63;42.46;100544.97;4994720;28;20467;-94
2022/10/31 01:49:17;;;;;;;1.85;0.65;;;;;;;17.59;42.48;100544.63;4999990;28;20426;-94
2022/10/31 01:51:48;;;;;;;1.35;0.88;;;;;;;17.56;42.55;100553.16;5001535;28;20030;-94
2022/10/31 01:54:15;;;;;;;1.13;0.57;;;;;;;17.61;42.53;100549.78;4994891;28;20398;-94
2022/10/31 01:56:42;;;;;;;0.98;0.60;;;;;;;17.59;42.27;100549.16;5004828;28;20471;-94
2022/10/31 01:59:09;;;;;;;1.08;0.57;;;;;;;17.59;42.34;100562.69;4985773;28;20034;-94
2022/10/31 02:01:35;;;;;;;2.00;0.50;;;;;;;17.62;42.32;100554.13;4966827;28;20025;-94
2022/10/31 02:04:00;;;;;;;1.77;0.60;;;;;;;17.60;42.31;100556.22;4988484;28;20679;-93
2022/10/31 02:06:41;;;;;;;2.25;0.60;;;;;;;17.60;42.43;100561.63;4995018;28;20022;-94
2022/10/31 02:09:06;;;;;;;0.75;0.50;;;;;;;17.56;42.45;100555.88;4962676;28;20026;-93
2022/10/31 02:11:33;;;;;;;1.90;0.65;;;;;;;17.57;42.38;100568.31;4986484;28;20044;-94
2022/10/31 02:13:59;;;;;;;1.02;0.50;;;;;;;17.61;42.24;100574.13;4986714;28;20057;-95
2022/10/31 02:16:24;;;;;;;0.88;0.45;;;;;;;17.62;42.30;100573.03;4987184;28;20073;-94
2022/10/31 02:18:50;;;;;;;0.80;0.40;;;;;;;17.62;42.24;100578.44;4994356;28;20033;-93
2022/10/31 02:21:33;;;;;;;1.08;0.60;;;;;;;17.62;42.38;100586.56;4994649;28;20066;-94
2022/10/31 02:24:18;;;;;;;0.93;0.60;;;;;;;17.61;42.31;100576.81;4990395;28;20034;-94
2022/10/31 02:26:53;;;;;;;;;;;;;;;17.61;42.38;100585.72;4983862;28;20276;-94
2022/10/31 02:29:40;;;;;;;1.27;0.43;;;;;;;17.65;42.22;100591.50;5007181;28;19918;-94
2022/10/31 02:32:34;;;;;;;0.88;0.57;;;;;;;17.62;42.25;100592.78;4999083;28;20044;-93
2022/10/31 02:35:14;;;;;;;1.17;0.50;;;;;;;17.64;42.20;100597.94;4985160;28;20074;-93
2022/10/31 02:38:17;;;;;;;1.55;0.47;;;;;;;17.62;42.06;100594.66;5001283;28;20045;-93
2022/10/31 02:41:01;;;;;;;1.30;0.68;;;;;;;17.63;42.07;100594.44;5005915;28;20032;-94
2022/10/31 02:43:42;;;;;;;3.07;0.70;;;;;;;17.64;42.13;100603.34;4987525;28;20303;-94
2022/10/31 02:46:13;;;;;;;1.88;0.70;;;;;;;17.67;41.95;100605.59;5009132;28;20037;-94
2022/10/31 02:48:39;;;;;;;0.95;0.40;;;;;;;17.64;42.15;100611.47;4997917;28;20060;-93
2022/10/31 02:51:08;;;;;;;0.88;0.50;;;;;;;17.64;41.97;100606.91;4982092;28;20023;-93
2022/10/31 02:53:34;;;;;;;0.82;0.50;;;;;;;17.65;42.00;100613.13;4975027;28;20044;-94
2022/10/31 02:56:14;;;;;;;4.88;0.77;;;;;;;17.64;42.06;100606.91;5005260;28;20113;-94
2022/10/31 02:58:42;;;;;;;1.42;0.50;;;;;;;17.63;42.17;100605.25;4994856;28;20393;-94
2022/10/31 03:01:11;;;;;;;1.90;0.60;;;;;;;17.62;42.02;100606.28;4990092;28;20114;-94
2022/10/31 03:03:51;;;;;;;1.10;0.55;;;;;;;17.65;41.91;100605.00;4991915;28;20105;-94
2022/10/31 03:06:39;;;;;;;2.95;0.60;;;;;;;17.67;42.06;100611.00;5006211;28;20033;-93
2022/10/31 03:09:23;;;;;;;0.98;0.55;;;;;;;17.68;41.90;100606.41;4994883;28;20391;-93
2022/10/31 03:11:58;;;;;;;2.50;0.50;;;;;;;17.64;41.98;100611.47;4989821;28;20032;-94
2022/10/31 03:14:28;;;;;;;1.90;0.65;;;;;;;17.64;41.87;100606.06;4988732;28;20464;-93
2022/10/31 03:16:54;;;;;;;1.10;0.60;;;;;;;17.66;42.01;100614.78;4971851;28;20034;-93
2022/10/31 03:19:34;;;;;;;0.93;0.50;;;;;;;17.64;41.98;100611.47;4997054;28;20093;-93
2022/10/31 03:22:16;;;;;;;1.27;0.50;;;;;;;17.62;41.96;100617.09;4974814;28;20033;-94
2022/10/31 03:24:42;;;;;;;1.17;0.40;;;;;;;17.65;41.99;100607.72;4992998;28;20084;-93
2022/10/31 03:27:08;;;;;;;1.33;0.60;;;;;;;17.64;41.98;100604.19;4989620;28;20483;-94
2022/10/31 03:29:35;;;;;;;1.42;0.60;;;;;;;17.65;41.86;100615.81;4993745;28;20030;-94
2022/10/31 03:32:03;;;;;;;1.17;0.60;;;;;;;17.65;41.86;100618.53;4977429;28;20038;-94
2022/10/31 03:34:29;;;;;;;1.02;0.57;;;;;;;17.68;41.74;100622.63;4990516;28;20035;-95
2022/10/31 03:36:57;;;;;;;1.17;0.60;;;;;;;17.72;41.67;100621.97;4997768;28;20498;-94
2022/10/31 03:39:22;;;;;;;2.38;0.85;;;;;;;17.66;41.55;100617.50;4987831;28;20034;-94
2022/10/31 03:42:06;;;;;;;2.75;0.70;;;;;;;17.67;41.79;100627.22;4989079;28;20029;-93
2022/10/31 03:44:32;;;;;;;1.13;0.50;;;;;;;17.66;41.75;100628.31;5001630;28;20042;-93
2022/10/31 03:46:58;;;;;;;0.70;0.47;;;;;;;17.63;41.85;100620.66;4973543;28;20460;-93
2022/10/31 03:49:23;;;;;;;0.82;0.50;;;;;;;17.70;41.80;100629.47;4988202;28;20105;-93
2022/10/31 03:52:02;;;;;;;1.35;0.65;;;;;;;17.69;41.71;100627.81;4972136;28;20049;-94
2022/10/31 03:54:36;;;;;;;1.15;0.50;;;;;;;17.64;41.58;100616.88;4991664;28;20030;-93
2022/10/31 03:57:10;;;;;;;1.85;0.50;;;;;;;17.69;41.69;100624.31;4979554;28;20026;-94
2022/10/31 03:59:37;;;;;;;0.80;0.40;;;;;;;17.71;41.57;100633.00;5001784;28;20038;-93
2022/10/31 04:02:07;;;;;;;1.35;0.80;;;;;;;17.69;41.53;100633.22;4989415;28;20037;-94
2022/10/31 04:04:33;;;;;;;0.55;0.50;;;;;;;17.68;41.72;100628.88;4988019;28;20032;-93
2022/10/31 04:06:59;;;;;;;0.90;0.40;;;;;;;17.68;41.61;100634.28;4994905;28;20101;-94
2022/10/31 04:09:25;;;;;;;1.48;0.60;;;;;;;17.69;41.66;100635.94;4988040;28;20036;-93
2022/10/31 04:11:54;;;;;;;1.27;0.50;;;;;;;17.68;41.71;100638.84;4996365;28;20033;-93
2022/10/31 04:14:20;;;;;;;0.85;0.63;;;;;;;17.70;41.46;100631.38;4985826;28;20111;-93
2022/10/31 04:16:45;;;;;;;3.00;0.70;;;;;;;17.70;41.71;100637.59;4989733;28;20111;-93
2022/10/31 04:19:11;;;;;;;1.85;0.70;;;;;;;17.70;41.48;100651.09;4997455;28;20108;-93
2022/10/31 04:21:37;;;;;;;3.08;1.10;;;;;;;17.71;41.43;100654.63;4986751;28;20380;-93
2022/10/31 04:24:03;;;;;;;1.15;0.60;;;;;;;17.71;41.55;100643.81;4988888;28;20036;-93
2022/10/31 04:26:28;;;;;;;3.28;0.60;;;;;;;17.73;41.48;100642.53;4987355;28;20378;-94
2022/10/31 04:28:54;;;;;;;1.10;0.57;;;;;;;17.69;41.59;100637.81;5003959;28;20105;-93
2022/10/31 04:31:19;;;;;;;1.20;0.50;;;;;;;17.68;41.65;100638.84;5000621;28;20026;-93
2022/10/31 04:33:45;;;;;;;1.20;0.70;;;;;;;17.69;41.48;100630.53;4996360;28;20100;-93
2022/10/31 04:36:11;;;;;;;1.60;0.80;;;;;;;17.68;41.52;100639.69;4986145;28;20028;-93
2022/10/31 04:38:36;;;;;;;0.63;0.47;;;;;;;17.68;41.46;100639.69;4987868;28;20446;-93
2022/10/31 04:41:10;;;;;;;1.23;0.73;;;;;;;17.62;41.46;100627.09;4985405;28;20038;-93
2022/10/31 04:43:36;;;;;;;;;;;;;;;17.69;41.44;100644.03;4982918;28;20490;-94
2022/10/31 04:46:02;;;;;;;2.65;0.60;;;;;;;17.73;41.28;100650.66;5002231;28;19918;-94
2022/10/31 04:48:27;;;;;;;1.02;0.60;;;;;;;17.67;41.33;100648.84;4983149;28;20121;-93
2022/10/31 04:50:53;;;;;;;2.42;0.50;;;;;;;17.71;41.44;100651.91;4989289;28;20030;-93
2022/10/31 04:53:18;;;;;;;2.47;0.65;;;;;;;17.69;41.45;100654.84;5000484;28;20026;-93
2022/10/31 04:55:44;;;;;;;0.80;0.50;;;;;;;17.68;41.45;100655.06;4982546;28;20109;-93
2022/10/31 04:58:10;;;;;;;1.20;0.57;;;;;;;17.71;41.42;100649.22;4997079;28;20417;-93
2022/10/31 05:00:36;;;;;;;2.65;0.70;;;;;;;17.70;41.43;100645.69;5002709;28;20463;-93
2022/10/31 05:03:01;;;;;;;2.40;0.60;;;;;;;17.69;41.43;100646.75;4998597;28;20450;-93
2022/10/31 05:05:29;;;;;;;1.40;0.60;;;;;;;17.71;41.42;100643.81;4987602;28;20061;-93
2022/10/31 05:07:54;;;;;;;1.10;0.52;;;;;;;17.70;41.33;100648.41;4998565;28;20081;-93
2022/10/31 05:10:22;;;;;;;1.98;0.63;;;;;;;17.72;41.41;100640.88;4996747;28;20026;-93
2022/10/31 05:12:49;;;;;;;0.88;0.60;;;;;;;17.72;41.29;100649.00;4998019;28;20053;-92
2022/10/31 05:15:15;;;;;;;0.90;0.60;;;;;;;17.69;41.44;100651.31;4995704;28;20022;-93
2022/10/31 05:17:41;;;;;;;1.13;0.60;;;;;;;17.72;41.29;100657.09;4985279;28;20113;-93
2022/10/31 05:20:07;;;;;;;1.08;0.52;;;;;;;17.70;41.29;100666.50;4999572;28;20095;-92
2022/10/31 05:22:32;;;;;;;1.88;0.90;;;;;;;17.69;41.25;100672.94;4987645;28;20029;-93
2022/10/31 05:24:58;;;;;;;3.08;0.52;;;;;;;17.69;41.48;100676.47;4971124;28;20030;-93
2022/10/31 05:27:24;;;;;;;0.80;0.50;;;;;;;17.70;41.30;100677.31;5002349;28;20391;-92
2022/10/31 05:29:49;;;;;;;0.80;0.50;;;;;;;17.70;41.41;100688.94;5005515;28;20056;-93
2022/10/31 05:32:15;;;;;;;1.30;0.60;;;;;;;17.72;41.05;100692.25;5000219;28;20089;-92
2022/10/31 05:34:41;;;;;;;1.55;0.70;;;;;;;17.69;41.29;100692.69;4985749;28;20459;-93
2022/10/31 05:37:06;;;;;;;0.82;0.60;;;;;;;17.74;41.07;100698.25;4965299;28;20069;-92
2022/10/31 05:39:32;;;;;;;2.35;0.88;;;;;;;17.71;41.29;100697.88;4998890;28;20109;-92
2022/10/31 05:41:57;;;;;;;1.42;0.60;;;;;;;17.72;41.29;100699.53;4995395;28;20044;-92
2022/10/31 05:44:23;;;;;;;0.93;0.73;;;;;;;17.70;41.22;100696.25;5001943;28;20156;-92
2022/10/31 05:46:49;;;;;;;2.70;0.68;;;;;;;17.71;41.04;100697.88;4987651;28;20081;-92
2022/10/31 05:49:14;;;;;;;1.10;0.50;;;;;;;17.71;41.25;100698.69;5003958;28;20032;-92
2022/10/31 05:51:40;;;;;;;1.02;0.60;;;;;;;17.73;41.11;100701.16;5000745;28;20503;-93
2022/10/31 05:54:05;;;;;;;1.58;0.60;;;;;;;17.75;41.23;100693.69;4992681;28;20426;-93
2022/10/31 05:56:31;;;;;;;2.35;0.70;;;;;;;17.74;41.03;100692.00;5003776;28;20164;-92
2022/10/31 05:58:56;;;;;;;1.20;0.70;;;;;;;17.73;41.10;100691.19;4997377;28;20076;-92
2022/10/31 06:01:22;;;;;;;1.15;0.63;;;;;;;17.70;41.17;100694.34;4998175;28;20109;-92
2022/10/31 06:03:48;;;;;;;1.17;0.70;;;;;;;17.71;41.20;100695.97;4996703;28;20041;-92
2022/10/31 06:06:13;;;;;;;1.38;0.65;;;;;;;17.70;41.21;100696.25;5004369;28;20088;-92
2022/10/31 06:08:40;;;;;;;1.77;0.60;;;;;;;17.69;41.19;100695.38;4999484;28;20089;-93
2022/10/31 06:11:08;;;;;;;2.60;0.77;;;;;;;17.69;41.08;100698.09;4993584;28;20357;-92
2022/10/31 06:13:34;;;;;;;1.40;0.60;;;;;;;17.73;41.06;100706.56;5002832;28;20036;-93
2022/10/31 06:16:00;;;;;;;0.90;0.43;;;;;;;17.70;40.89;100705.16;5000182;28;20030;-93
2022/10/31 06:18:25;;;;;;;0.65;0.43;;;;;;;17.73;41.00;100717.38;4998382;28;20105;-93
2022/10/31 06:20:51;;;;;;;1.33;0.43;;;;;;;17.74;41.08;100719.88;4980667;28;20033;-93
2022/10/31 06:23:16;;;;;;;1.30;0.65;;;;;;;17.74;40.98;100719.88;4995301;28;20050;-93
2022/10/31 06:25:42;;;;;;;0.85;0.50;;;;;;;17.71;41.18;100701.38;5003528;28;20106;-92
2022/10/31 06:28:07;;;;;;;4.38;0.70;;;;;;;17.67;41.19;100692.09;4998741;28;20092;-93
2022/10/31 06:30:33;;;;;;;1.30;0.60;;;;;;;17.73;41.16;100690.34;5000121;28;20065;-93
2022/10/31 06:33:03;;;;;;;1.00;0.60;;;;;;;17.74;40.91;100694.72;4999319;28;20115;-93
2022/10/31 06:35:29;;;;;;;1.73;0.70;;;;;;;17.72;41.05;100697.66;4991242;28;20024;-93
2022/10/31 06:37:55;;;;;;;1.58;0.73;;;;;;;17.68;40.96;100695.63;5001495;28;20022;-92
2022/10/31 06:40:20;;;;;;;1.90;0.80;;;;;;;17.71;41.05;100697.88;4991465;28;20034;-93
2022/10/31 06:42:46;;;;;;;3.03;0.77;;;;;;;17.71;40.96;100716.78;5002570;28;20053;-93
2022/10/31 06:45:11;;;;;;;2.13;0.80;;;;;;;17.73;40.98;100717.38;4992651;28;20303;-92
2022/10/31 06:47:37;;;;;;;1.48;0.60;;;;;;;17.69;41.06;100700.78;5003469;28;20030;-93
2022/10/31 06:50:03;;;;;;;1.83;0.73;;;;;;;17.72;41.03;100716.56;4998860;28;20080;-92
2022/10/31 06:52:28;;;;;;;2.25;0.70;;;;;;;17.73;40.97;100718.22;4993697;28;20038;-93
2022/10/31 06:54:54;;;;;;;1.42;0.90;;;;;;;17.75;40.88;100721.53;4991715;28;20089;-93
2022/10/31 06:57:20;;;;;;;1.58;0.63;;;;;;;17.73;41.08;100711.97;4994036;28;20096;-93
2022/10/31 06:59:45;;;;;;;1.95;0.60;;;;;;;17.76;40.86;100711.53;5004864;28;20034;-92
2022/10/31 07:02:11;;;;;;;3.85;0.70;;;;;;;17.72;41.05;100711.16;5004464;28;20513;-93
2022/10/31 07:04:37;;;;;;;1.67;0.77;;;;;;;17.71;40.97;100714.09;4990843;28;20034;-92
2022/10/31 07:07:02;;;;;;;1.25;0.70;;;;;;;17.69;40.92;100717.00;4991066;28;20021;-93
2022/10/31 07:09:28;;;;;;;1.13;0.70;;;;;;;17.73;41.01;100728.19;4988568;28;20026;-92
2022/10/31 07:11:53;;;;;;;1.23;0.80;;;;;;;17.72;40.98;100732.78;4990259;28;20054;-92
2022/10/31 07:14:19;;;;;;;1.30;0.80;;;;;;;17.77;40.87;100738.34;5003618;28;20482;-93
2022/10/31 07:16:49;;;;;;;1.98;0.80;;;;;;;17.74;41.07;100746.91;5006516;28;20103;-94
2022/10/31 07:19:14;;;;;;;1.20;0.60;;;;;;;17.70;40.90;100745.72;4993670;28;20022;-93
2022/10/31 07:21:40;;;;;;;1.50;0.60;;;;;;;17.72;40.92;100748.19;4970754;28;20023;-93
2022/10/31 07:24:05;;;;;;;2.90;0.77;;;;;;;17.73;40.89;100739.00;4999167;28;20084;-93
2022/10/31 07:26:31;;;;;;;1.45;0.63;;;;;;;17.72;40.98;100749.00;4996615;28;20468;-93
2022/10/31 07:28:56;;;;;;;1.02;0.60;;;;;;;17.71;41.13;100743.81;4990123;28;20105;-93
2022/10/31 07:31:22;;;;;;;2.08;0.75;;;;;;;17.72;41.13;100743.59;5001824;28;20137;-93
2022/10/31 07:33:48;;;;;;;1.30;0.60;;;;;;;17.69;40.98;100744.03;4999669;28;20046;-93
2022/10/31 07:36:13;;;;;;;1.15;0.60;;;;;;;17.71;41.03;100762.75;5002125;28;20521;-93
2022/10/31 07:38:39;;;;;;;1.08;0.63;;;;;;;17.71;41.08;100763.56;4996693;28;20456;-94
2022/10/31 07:41:07;;;;;;;1.67;0.73;;;;;;;17.70;41.08;100759.22;4996469;28;20530;-93
2022/10/31 07:43:33;;;;;;;1.10;0.60;;;;;;;17.69;41.13;100759.44;4995422;28;20510;-93
2022/10/31 07:45:58;;;;;;;0.90;0.50;;;;;;;17.70;41.04;100761.94;4998969;28;20061;-92
2022/10/31 07:48:24;;;;;;;1.80;0.85;;;;;;;17.69;41.08;100768.38;4989205;28;20030;-93
2022/10/31 07:50:50;;;;;;;1.95;1.00;;;;;;;17.68;41.17;100760.47;4997879;28;20117;-92
2022/10/31 07:53:15;;;;;;;1.92;0.70;;;;;;;17.69;41.26;100762.97;5003334;28;20492;-93
2022/10/31 07:55:41;;;;;;;1.23;0.73;;;;;;;17.68;41.31;100768.59;5000936;28;20166;-92
2022/10/31 07:58:09;;;;;;;2.28;0.75;;;;;;;17.68;41.20;100777.53;4989807;28;20382;-93
2022/10/31 08:00:35;;;;;;;0.82;0.80;;;;;;;17.68;41.17;100779.41;4973247;28;20107;-93
2022/10/31 08:03:05;;;;;;;1.05;0.75;;;;;;;17.71;41.19;100770.84;4998491;28;20030;-93
2022/10/31 08:05:31;;;;;;;1.92;0.70;;;;;;;17.69;41.29;100759.44;4989297;28;20076;-93
2022/10/31 08:07:57;;;;;;;1.50;0.77;;;;;;;17.68;41.24;100772.13;5002142;28;20383;-93
2022/10/31 08:10:23;;;;;;;1.70;0.60;;;;;;;17.70;41.19;100763.81;4989880;28;20033;-93
2022/10/31 08:12:58;;;;;;;1.38;0.65;;;;;;;17.68;41.38;100761.34;4982548;28;20030;-94
2022/10/31 08:15:24;;;;;;;3.25;0.68;;;;;;;17.68;41.38;100764.03;4984932;28;20032;-93
2022/10/31 08:17:49;;;;;;;1.33;0.73;;;;;;;17.69;41.38;100768.38;5004081;28;20109;-92
2022/10/31 08:20:15;;;;;;;1.25;0.63;;;;;;;17.68;41.38;100764.03;5002311;28;20447;-93
2022/10/31 08:22:40;;;;;;;0.90;0.60;;;;;;;17.67;41.53;100762.38;4995632;28;20077;-93
2022/10/31 08:25:06;;;;;;;1.08;0.60;;;;;;;17.74;41.49;100768.53;4995151;28;20082;-93
2022/10/31 08:27:32;;;;;;;1.10;0.70;;;;;;;17.68;41.58;100782.94;4998867;28;20026;-93
2022/10/31 08:29:58;;;;;;;0.90;0.60;;;;;;;17.68;41.59;100785.66;4989873;28;20034;-93
2022/10/31 08:32:24;;;;;;;0.77;0.60;;;;;;;17.68;41.59;100782.94;5004818;28;20061;-93
2022/10/31 08:34:49;;;;;;;1.85;0.63;;;;;;;17.68;41.52;100788.34;4990926;28;20462;-92
2022/10/31 08:37:19;;;;;;;1.92;0.70;;;;;;;17.67;41.59;100789.41;4989848;28;20042;-93
2022/10/31 08:39:46;;;;;;;1.38;0.60;;;;;;;17.66;41.67;100795.88;4984714;28;20022;-92
2022/10/31 08:42:12;;;;;;;1.73;0.75;;;;;;;17.67;41.74;100805.63;4988273;28;20049;-92
2022/10/31 08:44:38;;;;;;;1.13;0.55;;;;;;;17.68;41.80;100796.47;5001811;28;20045;-92
2022/10/31 08:47:03;;;;;;;1.17;0.70;;;;;;;17.69;41.72;100803.50;4999640;28;20058;-92
2022/10/31 08:49:29;;;;;;;1.08;0.70;;;;;;;17.72;41.66;100807.66;5002837;28;20437;-92
2022/10/31 08:51:55;;;;;;;1.30;0.70;;;;;;;17.72;41.81;100811.16;4995663;28;20491;-93
2022/10/31 08:54:20;;;;;;;1.58;0.80;;;;;;;17.72;41.78;100813.06;4992249;28;20038;-92
2022/10/31 08:56:46;;;;;;;1.98;0.90;;;;;;;17.73;41.72;100810.13;4971481;28;20061;-92
2022/10/31 08:59:11;;;;;;;0.95;0.60;;;;;;;17.74;41.87;100810.94;5005537;28;20162;-92
2022/10/31 09:01:37;;;;;;;1.50;0.75;;;;;;;17.73;41.96;100801.19;4997371;28;20065;-92
2022/10/31 09:04:03;;;;;;;1.00;0.68;;;;;;;17.70;42.00;100799.78;5001221;28;20119;-93
2022/10/31 09:06:28;;;;;;;1.50;0.50;;;;;;;17.72;42.03;100804.94;4983935;28;20116;-92
2022/10/31 09:08:54;;;;;;;1.33;0.70;;;;;;;17.71;42.11;100801.41;4987366;28;20491;-92
2022/10/31 09:11:19;;;;;;;2.00;0.80;;;;;;;17.71;42.24;100811.41;4988297;28;20029;-92
2022/10/31 09:13:45;;;;;;;1.30;0.60;;;;;;;17.73;42.29;100810.13;5000842;28;20454;-92
2022/10/31 09:16:10;;;;;;;2.13;0.82;;;;;;;17.75;42.45;100813.44;4993828;28;20113;-93
2022/10/31 09:18:36;;;;;;;1.13;0.63;;;;;;;17.73;42.56;100818.25;5002325;28;20118;-93
2022/10/31 09:21:02;;;;;;;1.10;0.70;;;;;;;17.74;42.85;100813.66;5003488;28;20076;-93
2022/10/31 09:23:27;;;;;;;1.13;0.68;;;;;;;17.73;43.06;100815.53;4990599;28;20037;-93
2022/10/31 09:25:53;;;;;;;0.77;0.68;;;;;;;17.73;43.31;100810.13;4999365;28;20022;-93
2022/10/31 09:28:20;;;;;;;0.82;0.60;;;;;;;17.68;43.17;100809.13;4989823;28;20530;-92
2022/10/31 09:30:47;;;;;;;0.95;0.60;;;;;;;17.68;43.32;100809.97;4986091;28;20026;-93
2022/10/31 09:33:13;;;;;;;1.13;0.60;;;;;;;17.69;43.35;100808.91;4986035;28;20043;-92
2022/10/31 09:35:39;;;;;;;1.52;0.80;;;;;;;17.66;43.41;100814.78;4975349;28;20033;-93
2022/10/31 09:38:06;;;;;;;1.42;0.68;;;;;;;17.65;43.44;100813.13;4975129;28;20121;-92
2022/10/31 09:40:37;;;;;;;1.23;0.77;;;;;;;17.70;43.54;100813.28;4988305;28;20467;-92
2022/10/31 09:43:11;;;;;;;0.90;0.60;;;;;;;17.67;43.47;100811.03;4956309;28;20615;-93
2022/10/31 09:45:52;;;;;;;0.88;0.50;;;;;;;17.64;43.67;100808.75;4979255;28;20066;-92
2022/10/31 09:48:32;;;;;;;0.63;0.40;;;;;;;17.63;43.68;100809.81;4981305;28;20022;-93
2022/10/31 09:51:07;;;;;;;0.50;0.50;;;;;;;17.62;43.67;100797.34;4979282;28;20034;-93
2022/10/31 09:53:44;;;;;;;1.48;0.70;;;;;;;17.59;43.93;100787.84;4976692;28;20110;-93
2022/10/31 09:56:13;;;;;;;1.27;0.60;;;;;;;17.62;43.92;100794.66;4984992;28;20218;-93
2022/10/31 09:58:46;;;;;;;0.63;0.57;;;;;;;17.60;44.14;100789.47;4977435;28;20226;-92
2022/10/31 10:01:29;;;;;;;1.60;0.67;;;;;;;17.61;44.04;100782.22;4971679;28;20030;-93
2022/10/31 10:04:00;;;;;;;2.75;0.70;;;;;;;17.64;44.26;100789.84;4981826;28;20037;-93
2022/10/31 10:06:28;;;;;;;1.25;0.50;;;;;;;17.61;44.28;100784.91;4961274;28;20034;-93
2022/10/31 10:08:54;;;;;;;0.50;0.50;;;;;;;17.61;44.22;100790.31;4970181;28;20077;-93
2022/10/31 10:11:45;;;;;;;2.13;0.80;;;;;;;17.68;44.36;100784.81;4958110;28;20030;-93
2022/10/31 10:14:29;;;;;;;0.98;0.57;;;;;;;17.62;44.28;100784.66;4976730;28;20033;-93
2022/10/31 10:17:07;;;;;;;0.75;0.57;;;;;;;17.64;44.36;100784.44;4980075;28;20137;-93
2022/10/31 10:19:48;;;;;;;1.25;0.68;;;;;;;17.64;44.47;100773.63;4979374;28;20121;-94
2022/10/31 10:22:37;;;;;;;1.17;0.52;;;;;;;17.68;44.29;100769.44;4984078;28;20034;-94
2022/10/31 10:25:23;;;;;;;1.45;0.85;;;;;;;17.64;44.42;100773.63;4978383;28;20027;-92
2022/10/31 10:28:03;;;;;;;1.40;0.55;;;;;;;17.64;44.47;100762.81;4978107;28;20387;-93
2022/10/31 10:30:47;;;;;;;2.03;0.60;;;;;;;17.67;44.61;100761.56;4973974;28;20126;-93
2022/10/31 10:33:18;;;;;;;0.80;0.55;;;;;;;17.66;44.65;100758.03;4999474;28;20564;-93
2022/10/31 10:35:47;;;;;;;1.65;0.65;;;;;;;17.65;44.76;100759.88;5005275;28;20051;-93
2022/10/31 10:38:24;;;;;;;0.55;0.35;;;;;;;17.66;44.73;100766.13;4987271;28;20053;-94
2022/10/31 10:40:52;;;;;;;1.60;0.60;;;;;;;17.66;44.63;100763.44;4992874;28;20441;-93
2022/10/31 10:43:22;;;;;;;0.80;0.52;;;;;;;17.65;44.77;100772.59;4968179;28;20022;-95
2022/10/31 10:49:00;;;;;;;0.93;0.55;;;;;;;17.66;44.76;100782.34;4988659;28;20049;-94
2022/10/31 10:51:28;;;;;;;0.85;0.60;;;;;;;17.64;44.88;100784.44;5006929;28;20137;-94
2022/10/31 10:54:24;;;;;;;1.65;0.50;;;;;;;17.65;44.84;100789.63;4982192;28;20053;-93
2022/10/31 10:57:02;;;;;;;0.60;0.50;;;;;;;17.64;44.94;100787.13;4983609;28;20039;-94
2022/10/31 10:59:27;;;;;;;0.95;0.52;;;;;;;17.64;44.86;100781.72;4995706;28;20029;-93
2022/10/31 11:01:53;;;;;;;0.93;0.50;;;;;;;17.65;44.96;100791.50;4985433;28;20033;-94
2022/10/31 11:04:39;;;;;;;1.10;0.60;;;;;;;17.67;45.08;100788.59;4989652;28;20025;-94
2022/10/31 11:07:09;;;;;;;1.15;0.57;;;;;;;17.70;44.99;100794.38;5004082;28;20030;-93
2022/10/31 11:09:35;;;;;;;1.13;0.60;;;;;;;17.68;45.06;100782.94;4989378;28;20080;-93
2022/10/31 11:12:34;;;;;;;0.38;0.38;;;;;;;17.68;44.95;100782.09;4972857;28;20013;-94
2022/10/31 11:15:07;;;;;;;0.80;0.70;;;;;;;17.69;45.08;100787.28;4964287;28;20056;-93
2022/10/31 11:17:35;;;;;;;2.20;0.70;;;;;;;17.70;44.96;100788.97;4990857;28;20028;-94
2022/10/31 11:20:05;;;;;;;0.65;0.43;;;;;;;17.67;45.07;100781.28;5000939;28;20029;-93
2022/10/31 11:22:31;;;;;;;1.13;0.68;;;;;;;17.65;45.03;100770.69;4990236;28;20433;-93
2022/10/31 11:24:56;;;;;;;0.95;0.47;;;;;;;17.67;45.13;100775.06;5003502;28;20044;-93
2022/10/31 11:27:23;;;;;;;1.10;0.68;;;;;;;17.68;45.06;100779.41;4987858;28;20057;-94
2022/10/31 11:29:49;;;;;;;0.77;0.50;;;;;;;17.62;45.26;100760.34;4974073;28;20169;-93
2022/10/31 11:32:21;;;;;;;0.75;0.45;;;;;;;17.67;45.25;100766.97;4970492;28;20430;-94
2022/10/31 11:34:49;;;;;;;1.20;0.60;;;;;;;17.67;45.30;100767.78;4975204;28;20117;-93
2022/10/31 11:37:32;;;;;;;1.15;0.60;;;;;;;17.68;45.24;100760.47;4985693;28;20073;-94